Time;durP1;ratioP1;P1;durP2;ratioP2;P2;SDS_P1;SDS_P2;PMS_P1;PMS_P2;Temp;Humidity;BMP_temperature;BMP_pressure;BME280_temperature;BME280_humidity;BME280_pressure;Samples;Min_cycle;Max_cycle;Signal;HPM_P1;HPM_P2
2021/12/29 00:02:20;;;;;;;39.30;15.85;;;;;;;;;;5014468;28;20038;-65
2021/12/29 00:04:47;;;;;;;39.35;15.13;;;;;;;;;;5014091;28;20022;-65
2021/12/29 00:07:13;;;;;;;33.90;14.55;;;;;;;;;;5013403;28;20021;-64
2021/12/29 00:09:40;;;;;;;39.00;15.80;;;;;;;;;;5013777;28;20469;-64
2021/12/29 00:12:10;;;;;;;37.10;15.20;;;;;;;;;;5013940;28;20127;-63
2021/12/29 00:14:37;;;;;;;35.05;15.82;;;;;;;;;;5013664;28;20371;-65
2021/12/29 00:17:04;;;;;;;40.00;16.75;;;;;;;;;;5011027;28;20026;-63
2021/12/29 00:19:30;;;;;;;35.17;15.00;;;;;;;;;;5011827;28;20032;-64
2021/12/29 00:21:56;;;;;;;31.05;13.25;;;;;;;;;;5012711;28;20030;-64
2021/12/29 00:24:23;;;;;;;27.77;13.20;;;;;;;;;;5013572;28;20380;-64
2021/12/29 00:26:49;;;;;;;29.08;13.63;;;;;;;;;;5013224;28;20096;-64
2021/12/29 00:29:16;;;;;;;32.08;14.05;;;;;;;;;;5013372;28;20033;-62
2021/12/29 00:31:42;;;;;;;34.25;13.63;;;;;;;;;;5013354;28;20026;-65
2021/12/29 00:34:08;;;;;;;31.77;12.95;;;;;;;;;;5013171;28;20468;-64
2021/12/29 00:36:34;;;;;;;25.73;11.35;;;;;;;;;;5013407;28;20050;-64
2021/12/29 00:39:00;;;;;;;28.38;11.68;;;;;;;;;;5013722;28;20026;-63
2021/12/29 00:41:27;;;;;;;30.23;12.88;;;;;;;;;;5012758;28;20030;-64
2021/12/29 00:43:55;;;;;;;22.85;10.55;;;;;;;;;;5013755;28;20369;-64
2021/12/29 00:46:21;;;;;;;28.17;10.82;;;;;;;;;;5013766;28;20030;-64
2021/12/29 00:48:48;;;;;;;27.52;11.18;;;;;;;;;;5013454;28;20061;-65
2021/12/29 00:51:14;;;;;;;25.35;11.95;;;;;;;;;;5013378;28;20026;-63
2021/12/29 00:53:40;;;;;;;29.05;12.07;;;;;;;;;;5013337;28;20100;-63
2021/12/29 00:56:07;;;;;;;26.83;12.10;;;;;;;;;;5013305;28;20029;-64
2021/12/29 00:58:33;;;;;;;27.88;11.82;;;;;;;;;;5013288;28;20014;-63
2021/12/29 01:01:00;;;;;;;25.50;11.68;;;;;;;;;;5013313;28;20033;-64
2021/12/29 01:03:26;;;;;;;30.23;11.80;;;;;;;;;;5013388;28;20101;-63
2021/12/29 01:05:53;;;;;;;31.40;12.25;;;;;;;;;;5013190;28;20026;-64
2021/12/29 01:08:20;;;;;;;31.35;12.15;;;;;;;;;;5013226;28;20473;-65
2021/12/29 01:10:47;;;;;;;32.50;13.90;;;;;;;;;;5013139;28;20030;-65
2021/12/29 01:13:18;;;;;;;32.25;12.88;;;;;;;;;;5013745;28;20022;-65
2021/12/29 01:18:46;;;;;;;27.65;10.65;;;;;;;;;;4990630;28;19905;-64
2021/12/29 01:21:12;;;;;;;23.58;11.02;;;;;;;;;;5013662;28;20350;-65
2021/12/29 01:23:38;;;;;;;29.33;12.35;;;;;;;;;;5012832;28;20025;-65
2021/12/29 01:26:05;;;;;;;26.10;12.73;;;;;;;;;;5013319;28;20037;-65
2021/12/29 01:28:31;;;;;;;27.15;11.93;;;;;;;;;;5013168;28;20029;-64
2021/12/29 01:30:57;;;;;;;30.40;11.32;;;;;;;;;;5016234;28;20017;-66
2021/12/29 01:33:23;;;;;;;28.42;12.30;;;;;;;;;;5016937;28;20022;-65
2021/12/29 01:35:49;;;;;;;32.80;11.93;;;;;;;;;;5016984;28;20030;-65
2021/12/29 01:38:16;;;;;;;33.05;11.65;;;;;;;;;;5016790;28;20121;-64
2021/12/29 01:40:43;;;;;;;26.58;11.90;;;;;;;;;;5016879;28;20018;-63
2021/12/29 01:43:09;;;;;;;30.08;11.77;;;;;;;;;;5016456;28;20033;-64
2021/12/29 01:45:36;;;;;;;27.38;11.90;;;;;;;;;;5016102;28;20376;-64
2021/12/29 01:48:04;;;;;;;28.58;10.98;;;;;;;;;;5016994;28;20037;-64
2021/12/29 01:50:31;;;;;;;29.80;12.20;;;;;;;;;;5016650;28;20506;-64
2021/12/29 01:53:02;;;;;;;35.38;13.38;;;;;;;;;;5016640;28;20037;-64
2021/12/29 01:55:31;;;;;;;24.60;11.55;;;;;;;;;;5016201;28;20033;-64
2021/12/29 01:57:57;;;;;;;26.88;11.35;;;;;;;;;;5016244;28;20080;-63
2021/12/29 02:00:25;;;;;;;30.13;13.20;;;;;;;;;;5016204;28;20075;-62
2021/12/29 02:02:51;;;;;;;32.35;12.65;;;;;;;;;;5016422;28;20018;-64
2021/12/29 02:05:17;;;;;;;31.08;11.65;;;;;;;;;;5015718;28;20022;-63
2021/12/29 02:07:44;;;;;;;27.77;11.95;;;;;;;;;;5016087;28;20030;-65
2021/12/29 02:10:11;;;;;;;34.00;14.23;;;;;;;;;;5016105;28;20109;-63
2021/12/29 02:12:38;;;;;;;33.15;13.35;;;;;;;;;;5015915;28;20101;-63
2021/12/29 02:15:05;;;;;;;34.92;12.90;;;;;;;;;;5016240;28;20117;-64
2021/12/29 02:17:32;;;;;;;40.33;14.77;;;;;;;;;;5015836;28;20388;-63
2021/12/29 02:19:59;;;;;;;30.95;13.27;;;;;;;;;;5015748;28;20018;-63
2021/12/29 02:25:20;;;;;;;38.72;14.73;;;;;;;;;;5016249;28;20408;-64
2021/12/29 02:27:48;;;;;;;35.22;12.93;;;;;;;;;;5015524;28;20108;-63
2021/12/29 02:30:14;;;;;;;41.88;15.40;;;;;;;;;;5015947;28;20025;-64
2021/12/29 02:32:42;;;;;;;33.38;14.52;;;;;;;;;;5015900;28;20128;-64
2021/12/29 02:35:08;;;;;;;37.55;14.43;;;;;;;;;;5015820;28;20029;-64
2021/12/29 02:37:34;;;;;;;32.65;12.70;;;;;;;;;;5015846;28;20391;-62
2021/12/29 02:40:00;;;;;;;32.63;12.80;;;;;;;;;;5015605;28;20026;-64
2021/12/29 02:42:30;;;;;;;32.05;12.50;;;;;;;;;;5014847;28;20540;-64
2021/12/29 02:44:57;;;;;;;34.17;12.93;;;;;;;;;;5015517;28;20075;-63
2021/12/29 02:47:23;;;;;;;36.45;13.63;;;;;;;;;;5015271;28;20038;-63
2021/12/29 02:49:49;;;;;;;35.67;13.73;;;;;;;;;;5015561;28;20018;-64
2021/12/29 02:52:15;;;;;;;31.77;12.95;;;;;;;;;;5015549;28;20033;-64
2021/12/29 02:54:42;;;;;;;33.88;14.35;;;;;;;;;;5015066;28;20061;-63
2021/12/29 02:57:08;;;;;;;34.08;12.95;;;;;;;;;;5015733;28;20025;-63
2021/12/29 02:59:34;;;;;;;37.38;13.38;;;;;;;;;;5015135;28;20028;-63
2021/12/29 03:02:01;;;;;;;35.95;13.70;;;;;;;;;;5014758;28;20030;-64
2021/12/29 03:04:27;;;;;;;36.05;13.73;;;;;;;;;;5015106;28;20354;-65
2021/12/29 03:06:53;;;;;;;36.30;12.82;;;;;;;;;;5015239;28;20380;-63
2021/12/29 03:09:19;;;;;;;36.67;14.70;;;;;;;;;;5014868;28;20373;-62
2021/12/29 03:11:46;;;;;;;39.67;14.98;;;;;;;;;;5014845;28;20018;-63
2021/12/29 03:14:14;;;;;;;34.65;13.95;;;;;;;;;;5014760;28;20052;-63
2021/12/29 03:16:41;;;;;;;35.22;15.15;;;;;;;;;;5014526;28;20033;-63
2021/12/29 03:19:08;;;;;;;40.83;15.45;;;;;;;;;;5015181;28;20050;-64
2021/12/29 03:21:34;;;;;;;36.53;14.27;;;;;;;;;;5014706;28;20520;-63
2021/12/29 03:24:01;;;;;;;39.35;14.48;;;;;;;;;;5014598;28;20116;-62
2021/12/29 03:26:27;;;;;;;46.55;15.90;;;;;;;;;;5015134;28;20036;-63
2021/12/29 03:28:54;;;;;;;38.90;14.95;;;;;;;;;;5014650;28;20084;-62
2021/12/29 03:31:21;;;;;;;41.72;15.10;;;;;;;;;;5015248;28;20375;-65
2021/12/29 03:33:48;;;;;;;41.78;14.50;;;;;;;;;;5014446;28;20018;-63
2021/12/29 03:36:15;;;;;;;37.25;15.07;;;;;;;;;;5014368;28;20026;-64
2021/12/29 03:38:42;;;;;;;44.75;14.95;;;;;;;;;;5014530;28;20030;-65
2021/12/29 03:41:12;;;;;;;43.72;16.73;;;;;;;;;;5014954;28;20025;-65
2021/12/29 03:43:39;;;;;;;38.15;14.68;;;;;;;;;;5014711;28;20025;-64
2021/12/29 03:46:06;;;;;;;39.13;14.43;;;;;;;;;;5014507;28;20026;-66
2021/12/29 03:48:33;;;;;;;35.38;15.00;;;;;;;;;;5014280;28;20443;-65
2021/12/29 03:51:00;;;;;;;40.25;15.63;;;;;;;;;;5014243;28;20034;-64
2021/12/29 03:53:26;;;;;;;49.97;17.48;;;;;;;;;;5014290;28;20439;-64
2021/12/29 03:55:52;;;;;;;47.55;17.83;;;;;;;;;;5014227;28;20037;-65
2021/12/29 03:58:19;;;;;;;56.42;21.75;;;;;;;;;;5014060;28;20368;-64
2021/12/29 04:00:47;;;;;;;53.28;21.95;;;;;;;;;;5014171;28;20037;-66
2021/12/29 04:03:13;;;;;;;50.45;20.50;;;;;;;;;;5014308;28;20093;-64
2021/12/29 04:05:39;;;;;;;62.15;22.25;;;;;;;;;;5013937;28;20026;-63
2021/12/29 04:08:05;;;;;;;60.47;21.88;;;;;;;;;;5014239;28;20026;-65
2021/12/29 04:10:32;;;;;;;58.85;22.70;;;;;;;;;;5013969;28;20080;-64
2021/12/29 04:12:58;;;;;;;48.97;19.70;;;;;;;;;;5014451;28;20029;-64
2021/12/29 04:15:25;;;;;;;51.55;20.15;;;;;;;;;;5014038;28;20447;-66
2021/12/29 04:17:57;;;;;;;56.28;22.02;;;;;;;;;;5013761;28;20109;-64
2021/12/29 04:23:09;;;;;;;46.10;17.13;;;;;;;;;;5013822;28;20105;-64
2021/12/29 04:25:37;;;;;;;51.10;19.20;;;;;;;;;;5013618;28;20034;-63
2021/12/29 04:28:07;;;;;;;41.70;17.20;;;;;;;;;;5014214;28;20029;-62
2021/12/29 04:30:34;;;;;;;44.45;17.02;;;;;;;;;;5013547;28;20096;-63
2021/12/29 04:33:00;;;;;;;46.08;19.08;;;;;;;;;;5013355;28;20028;-62
2021/12/29 04:35:26;;;;;;;44.00;18.65;;;;;;;;;;5013938;28;20041;-62
2021/12/29 04:37:52;;;;;;;52.58;19.75;;;;;;;;;;5014045;28;20425;-64
2021/12/29 04:40:19;;;;;;;50.30;19.35;;;;;;;;;;5013257;28;20380;-62
2021/12/29 04:42:45;;;;;;;40.88;16.83;;;;;;;;;;5013836;28;20021;-63
2021/12/29 04:45:11;;;;;;;35.35;16.48;;;;;;;;;;5013498;28;20385;-63
2021/12/29 04:47:42;;;;;;;38.88;15.30;;;;;;;;;;5013478;28;20024;-62
2021/12/29 04:50:18;;;;;;;38.63;14.82;;;;;;;;;;4996173;28;20061;-63
2021/12/29 04:52:44;;;;;;;36.45;14.90;;;;;;;;;;5013388;28;20038;-63
2021/12/29 04:55:11;;;;;;;39.33;15.90;;;;;;;;;;5013909;28;20029;-64
2021/12/29 04:57:37;;;;;;;39.08;16.80;;;;;;;;;;5014129;28;20030;-63
2021/12/29 05:00:05;;;;;;;37.05;14.65;;;;;;;;;;5013282;28;20129;-64
2021/12/29 05:02:31;;;;;;;44.45;17.73;;;;;;;;;;5013417;28;20022;-63
2021/12/29 05:04:59;;;;;;;48.15;16.23;;;;;;;;;;5014821;28;20036;-64
2021/12/29 05:10:10;;;;;;;39.60;14.23;;;;;;;;;;5017526;28;20053;-64
2021/12/29 05:12:36;;;;;;;33.40;15.05;;;;;;;;;;5017075;28;20472;-64
2021/12/29 05:15:03;;;;;;;39.40;14.88;;;;;;;;;;5016683;28;20026;-63
2021/12/29 05:17:29;;;;;;;36.42;15.27;;;;;;;;;;5017175;28;20030;-63
2021/12/29 05:19:55;;;;;;;37.25;15.25;;;;;;;;;;5017142;28;20030;-64
2021/12/29 05:22:22;;;;;;;34.85;15.23;;;;;;;;;;5017197;28;20028;-64
2021/12/29 05:24:48;;;;;;;40.67;15.25;;;;;;;;;;5016908;28;20018;-66
2021/12/29 05:27:14;;;;;;;42.90;17.23;;;;;;;;;;5017279;28;20357;-64
2021/12/29 05:29:40;;;;;;;51.05;20.65;;;;;;;;;;5016520;28;20026;-65
2021/12/29 05:32:07;;;;;;;53.13;21.20;;;;;;;;;;5016749;28;20018;-64
2021/12/29 05:34:33;;;;;;;44.22;18.77;;;;;;;;;;5016494;28;20026;-64
2021/12/29 05:37:02;;;;;;;51.40;19.77;;;;;;;;;;5016882;28;20049;-65
2021/12/29 05:39:28;;;;;;;53.92;20.52;;;;;;;;;;4998789;28;20032;-65
2021/12/29 05:41:55;;;;;;;46.13;21.20;;;;;;;;;;5014281;28;20046;-64
2021/12/29 05:44:21;;;;;;;47.67;20.73;;;;;;;;;;5014646;28;20076;-65
2021/12/29 05:46:47;;;;;;;52.78;21.30;;;;;;;;;;5015363;28;20034;-64
2021/12/29 05:49:13;;;;;;;60.35;23.65;;;;;;;;;;5016099;28;20117;-66
2021/12/29 05:51:39;;;;;;;51.70;21.67;;;;;;;;;;5016282;28;20026;-64
2021/12/29 05:54:05;;;;;;;51.03;21.30;;;;;;;;;;5016076;28;20021;-65
2021/12/29 05:56:31;;;;;;;43.83;19.52;;;;;;;;;;5015727;28;20038;-64
2021/12/29 05:59:01;;;;;;;41.70;17.73;;;;;;;;;;5015947;28;20033;-64
2021/12/29 06:01:28;;;;;;;48.33;19.42;;;;;;;;;;5016178;28;20025;-63
2021/12/29 06:03:55;;;;;;;48.38;19.67;;;;;;;;;;5015811;28;20018;-62
2021/12/29 06:06:21;;;;;;;41.38;18.63;;;;;;;;;;5015955;28;20030;-62
2021/12/29 06:08:47;;;;;;;50.08;20.67;;;;;;;;;;5015414;28;20504;-62
2021/12/29 06:11:17;;;;;;;51.90;20.42;;;;;;;;;;5013613;28;20270;-65
2021/12/29 06:13:43;;;;;;;56.13;21.77;;;;;;;;;;5015285;28;20018;-63
2021/12/29 06:16:09;;;;;;;48.75;22.20;;;;;;;;;;5013463;28;20018;-62
2021/12/29 06:18:35;;;;;;;51.03;21.20;;;;;;;;;;5014444;28;20026;-62
2021/12/29 06:21:01;;;;;;;44.03;18.38;;;;;;;;;;5015768;28;20025;-62
2021/12/29 06:23:27;;;;;;;46.60;20.33;;;;;;;;;;5016300;28;20032;-63
2021/12/29 06:25:53;;;;;;;55.45;22.60;;;;;;;;;;5015754;28;20061;-62
2021/12/29 06:28:20;;;;;;;56.15;22.67;;;;;;;;;;5015705;28;20021;-62
2021/12/29 06:30:46;;;;;;;49.05;22.08;;;;;;;;;;5015632;28;20028;-63
2021/12/29 06:33:12;;;;;;;57.42;23.23;;;;;;;;;;5015895;28;20050;-63
2021/12/29 06:35:38;;;;;;;53.20;22.33;;;;;;;;;;5015822;28;20030;-63
2021/12/29 06:38:05;;;;;;;54.00;22.65;;;;;;;;;;5015115;28;20056;-62
2021/12/29 06:40:31;;;;;;;54.50;24.27;;;;;;;;;;5015899;28;20038;-64
2021/12/29 06:42:57;;;;;;;42.50;18.58;;;;;;;;;;5015784;28;20014;-63
2021/12/29 06:45:23;;;;;;;44.88;20.55;;;;;;;;;;5015381;28;20037;-64
2021/12/29 06:47:50;;;;;;;46.78;20.60;;;;;;;;;;5015670;28;20113;-63
2021/12/29 06:50:16;;;;;;;48.42;20.80;;;;;;;;;;5015790;28;20022;-62
2021/12/29 06:52:42;;;;;;;45.90;20.95;;;;;;;;;;5015187;28;20032;-63
2021/12/29 06:55:08;;;;;;;49.78;22.30;;;;;;;;;;5015416;28;20026;-64
2021/12/29 06:57:34;;;;;;;49.35;23.50;;;;;;;;;;5014985;28;20029;-64
2021/12/29 07:00:01;;;;;;;52.03;24.45;;;;;;;;;;5014457;28;20515;-64
2021/12/29 07:02:27;;;;;;;56.58;25.52;;;;;;;;;;5013277;28;20026;-64
2021/12/29 07:04:53;;;;;;;51.20;22.67;;;;;;;;;;5013149;28;20021;-64
2021/12/29 07:07:19;;;;;;;59.92;24.95;;;;;;;;;;5012887;28;20022;-63
2021/12/29 07:09:45;;;;;;;65.70;25.92;;;;;;;;;;5014689;28;20152;-63
2021/12/29 07:12:12;;;;;;;66.63;27.02;;;;;;;;;;5013586;28;20037;-63
2021/12/29 07:14:39;;;;;;;57.00;26.33;;;;;;;;;;5014059;28;20022;-62
2021/12/29 07:17:06;;;;;;;63.28;28.02;;;;;;;;;;5015093;28;20026;-63
2021/12/29 07:19:32;;;;;;;54.75;25.60;;;;;;;;;;5014546;28;20024;-63
2021/12/29 07:22:00;;;;;;;55.20;28.33;;;;;;;;;;5015005;28;20071;-63
2021/12/29 07:24:26;;;;;;;61.63;27.42;;;;;;;;;;5015254;28;20025;-64
2021/12/29 07:26:52;;;;;;;60.35;27.55;;;;;;;;;;5014524;28;20445;-63
2021/12/29 07:29:19;;;;;;;66.60;32.15;;;;;;;;;;5014236;28;20391;-63
2021/12/29 07:31:45;;;;;;;68.63;33.45;;;;;;;;;;5014744;28;20021;-64
2021/12/29 07:34:11;;;;;;;72.53;31.80;;;;;;;;;;5014371;28;20369;-64
2021/12/29 07:36:37;;;;;;;86.13;36.65;;;;;;;;;;5014586;28;20045;-63
2021/12/29 07:39:04;;;;;;;71.22;35.50;;;;;;;;;;5014936;28;20026;-63
2021/12/29 07:41:30;;;;;;;68.25;32.42;;;;;;;;;;5014029;28;20022;-64
2021/12/29 07:43:57;;;;;;;73.40;33.15;;;;;;;;;;5014816;28;20100;-63
2021/12/29 07:46:24;;;;;;;73.57;33.50;;;;;;;;;;5014438;28;20108;-63
2021/12/29 07:48:50;;;;;;;69.63;32.15;;;;;;;;;;5014090;28;20036;-63
2021/12/29 07:51:16;;;;;;;64.38;29.83;;;;;;;;;;5014152;28;20018;-63
2021/12/29 07:53:43;;;;;;;61.22;30.80;;;;;;;;;;5014046;28;20026;-64
2021/12/29 07:56:09;;;;;;;64.57;30.35;;;;;;;;;;5013821;28;20104;-63
2021/12/29 07:58:35;;;;;;;63.50;29.60;;;;;;;;;;5014336;28;20456;-63
2021/12/29 08:01:03;;;;;;;58.38;28.83;;;;;;;;;;5014170;28;20029;-63
2021/12/29 08:03:29;;;;;;;62.92;28.33;;;;;;;;;;5013855;28;20030;-62
2021/12/29 08:05:55;;;;;;;56.85;27.20;;;;;;;;;;5013820;28;20022;-63
2021/12/29 08:08:22;;;;;;;67.38;28.98;;;;;;;;;;5014220;28;20034;-63
2021/12/29 08:10:48;;;;;;;53.80;26.15;;;;;;;;;;5013834;28;20097;-64
2021/12/29 08:13:15;;;;;;;51.90;25.83;;;;;;;;;;5014119;28;20071;-64
2021/12/29 08:15:41;;;;;;;56.05;25.70;;;;;;;;;;5013519;28;20108;-63
2021/12/29 08:18:07;;;;;;;54.88;25.77;;;;;;;;;;5013784;28;20022;-62
2021/12/29 08:20:35;;;;;;;49.03;24.33;;;;;;;;;;5013729;28;20028;-63
2021/12/29 08:23:01;;;;;;;52.22;23.92;;;;;;;;;;5013607;28;20083;-62
2021/12/29 08:25:28;;;;;;;42.13;21.35;;;;;;;;;;5014231;28;20036;-64
2021/12/29 08:27:54;;;;;;;45.33;21.45;;;;;;;;;;5013919;28;20053;-64
2021/12/29 08:30:20;;;;;;;43.88;20.70;;;;;;;;;;5014032;28;20030;-63
2021/12/29 08:32:46;;;;;;;38.05;18.23;;;;;;;;;;5014121;28;20030;-63
2021/12/29 08:35:13;;;;;;;42.00;19.05;;;;;;;;;;5013885;28;20052;-63
2021/12/29 08:37:39;;;;;;;41.30;18.25;;;;;;;;;;5013612;28;20054;-63
2021/12/29 08:40:07;;;;;;;37.92;19.38;;;;;;;;;;5013376;28;20109;-64
2021/12/29 08:42:34;;;;;;;45.72;21.08;;;;;;;;;;5013677;28;20033;-62
2021/12/29 08:45:00;;;;;;;40.67;20.05;;;;;;;;;;5013379;28;20057;-62
2021/12/29 08:47:26;;;;;;;35.17;18.10;;;;;;;;;;5013457;28;20507;-63
2021/12/29 08:49:53;;;;;;;38.58;19.15;;;;;;;;;;5013301;28;20024;-63
2021/12/29 08:52:19;;;;;;;35.65;18.38;;;;;;;;;;5013367;28;20029;-63
2021/12/29 08:54:45;;;;;;;50.45;25.42;;;;;;;;;;5013605;28;20026;-62
2021/12/29 08:57:11;;;;;;;51.85;27.20;;;;;;;;;;5013765;28;20025;-63
2021/12/29 08:59:38;;;;;;;42.65;22.85;;;;;;;;;;5013287;28;20033;-62
2021/12/29 09:02:04;;;;;;;51.40;27.30;;;;;;;;;;5013574;28;20065;-64
2021/12/29 09:04:30;;;;;;;39.40;19.90;;;;;;;;;;5013767;28;20018;-62
2021/12/29 09:06:56;;;;;;;39.90;19.67;;;;;;;;;;5013793;28;20049;-62
2021/12/29 09:09:22;;;;;;;33.78;17.38;;;;;;;;;;5013481;28;20030;-64
2021/12/29 09:11:49;;;;;;;31.48;16.05;;;;;;;;;;5012843;28;20445;-63
2021/12/29 09:14:15;;;;;;;32.35;15.82;;;;;;;;;;5013780;28;20029;-63
2021/12/29 09:16:43;;;;;;;34.85;17.33;;;;;;;;;;5013701;28;20487;-62
2021/12/29 09:19:12;;;;;;;37.90;19.00;;;;;;;;;;5013135;28;20080;-64
2021/12/29 09:21:39;;;;;;;42.28;20.33;;;;;;;;;;5013347;28;20495;-63
2021/12/29 09:24:06;;;;;;;39.72;20.00;;;;;;;;;;5013103;28;20388;-63
2021/12/29 09:26:32;;;;;;;43.50;21.23;;;;;;;;;;5013092;28;20026;-63
2021/12/29 09:28:58;;;;;;;45.80;24.00;;;;;;;;;;5013207;28;20056;-63
2021/12/29 09:31:25;;;;;;;57.35;30.83;;;;;;;;;;5013553;28;20026;-61
2021/12/29 09:33:51;;;;;;;41.67;22.30;;;;;;;;;;5012915;28;20036;-63
2021/12/29 09:36:18;;;;;;;46.97;23.05;;;;;;;;;;5013070;28;20038;-63
2021/12/29 09:38:45;;;;;;;49.88;25.20;;;;;;;;;;5013305;28;20030;-63
2021/12/29 09:41:13;;;;;;;66.00;31.67;;;;;;;;;;5012779;28;20380;-62
2021/12/29 09:43:39;;;;;;;62.10;29.02;;;;;;;;;;4995670;28;20477;-63
2021/12/29 09:46:06;;;;;;;57.30;27.02;;;;;;;;;;5013372;28;20105;-63
2021/12/29 09:48:32;;;;;;;71.03;34.17;;;;;;;;;;5012776;28;20033;-63
2021/12/29 09:50:59;;;;;;;55.30;28.80;;;;;;;;;;5014343;28;20026;-63
2021/12/29 09:53:25;;;;;;;76.97;35.65;;;;;;;;;;5016848;28;20065;-63
2021/12/29 09:55:51;;;;;;;71.53;34.00;;;;;;;;;;5016341;28;20035;-63
2021/12/29 09:58:18;;;;;;;73.05;35.70;;;;;;;;;;5016773;28;20022;-63
2021/12/29 10:00:46;;;;;;;78.32;38.67;;;;;;;;;;5015870;28;20018;-63
2021/12/29 10:03:14;;;;;;;110.53;50.90;;;;;;;;;;5016105;28;20021;-62
2021/12/29 10:05:41;;;;;;;89.10;43.25;;;;;;;;;;5016394;28;20034;-62
2021/12/29 10:08:09;;;;;;;85.22;40.47;;;;;;;;;;5016028;28;20030;-63
2021/12/29 10:10:37;;;;;;;112.95;53.20;;;;;;;;;;5015922;28;20029;-62
2021/12/29 10:13:03;;;;;;;104.00;48.22;;;;;;;;;;5015927;28;20026;-65
2021/12/29 10:15:34;;;;;;;91.80;44.08;;;;;;;;;;5015828;28;20038;-63
2021/12/29 10:18:05;;;;;;;93.85;46.63;;;;;;;;;;5016767;28;20038;-61
2021/12/29 10:20:31;;;;;;;96.85;48.97;;;;;;;;;;5015839;28;20037;-62
2021/12/29 10:22:58;;;;;;;101.20;45.83;;;;;;;;;;5015859;28;20018;-62
2021/12/29 10:25:24;;;;;;;115.75;57.95;;;;;;;;;;5015872;28;20057;-63
2021/12/29 10:27:54;;;;;;;146.18;72.25;;;;;;;;;;5015626;28;20405;-63
2021/12/29 10:30:30;;;;;;;127.05;64.85;;;;;;;;;;5015482;28;20473;-63
2021/12/29 10:32:59;;;;;;;99.63;47.58;;;;;;;;;;5015630;28;20033;-62
2021/12/29 10:35:33;;;;;;;105.43;52.22;;;;;;;;;;5015803;28;20030;-62
2021/12/29 10:38:17;;;;;;;106.65;50.88;;;;;;;;;;5016362;28;20054;-63
2021/12/29 10:40:43;;;;;;;97.10;46.58;;;;;;;;;;5016503;28;20052;-63
2021/12/29 10:43:10;;;;;;;120.93;60.08;;;;;;;;;;5015139;28;20431;-62
2021/12/29 10:45:38;;;;;;;114.95;57.17;;;;;;;;;;5015546;28;20030;-63
2021/12/29 10:48:18;;;;;;;100.53;49.90;;;;;;;;;;5015633;28;20026;-63
2021/12/29 10:50:58;;;;;;;94.80;47.45;;;;;;;;;;5015131;28;20075;-63
2021/12/29 10:53:24;;;;;;;109.70;49.03;;;;;;;;;;5015724;28;20110;-64
2021/12/29 10:55:50;;;;;;;94.90;46.75;;;;;;;;;;5015355;28;20033;-64
2021/12/29 10:58:20;;;;;;;88.85;45.20;;;;;;;;;;5015308;28;20029;-63
2021/12/29 11:00:48;;;;;;;102.70;48.33;;;;;;;;;;5015617;28;20022;-64
2021/12/29 11:03:19;;;;;;;93.10;45.40;;;;;;;;;;5014874;28;20360;-63
2021/12/29 11:05:48;;;;;;;95.07;46.22;;;;;;;;;;5014849;28;20068;-64
2021/12/29 11:08:15;;;;;;;116.18;53.25;;;;;;;;;;5015088;28;20033;-63
2021/12/29 11:10:43;;;;;;;103.90;52.40;;;;;;;;;;5014971;28;20435;-64
2021/12/29 11:13:09;;;;;;;114.18;54.58;;;;;;;;;;5014732;28;20491;-63
2021/12/29 11:15:41;;;;;;;113.75;54.20;;;;;;;;;;5015018;28;20030;-62
2021/12/29 11:18:11;;;;;;;111.93;50.67;;;;;;;;;;5014775;28;20473;-63
2021/12/29 11:20:39;;;;;;;121.13;56.08;;;;;;;;;;5014922;28;20101;-62
2021/12/29 11:23:08;;;;;;;124.82;57.45;;;;;;;;;;5014936;28;20030;-62
2021/12/29 11:25:34;;;;;;;117.28;54.05;;;;;;;;;;5014503;28;20392;-64
2021/12/29 11:28:01;;;;;;;108.95;52.35;;;;;;;;;;5014484;28;20488;-63
2021/12/29 11:30:28;;;;;;;115.65;54.05;;;;;;;;;;5014106;28;20080;-62
2021/12/29 11:33:03;;;;;;;122.28;58.25;;;;;;;;;;5013993;28;20464;-63
2021/12/29 11:35:29;;;;;;;123.32;55.65;;;;;;;;;;5014657;28;20391;-64
2021/12/29 11:37:57;;;;;;;125.30;56.08;;;;;;;;;;5015130;28;20188;-63
2021/12/29 11:40:25;;;;;;;103.47;48.63;;;;;;;;;;5014591;28;20087;-62
2021/12/29 11:42:52;;;;;;;100.93;46.53;;;;;;;;;;5014541;28;20021;-63
2021/12/29 11:45:18;;;;;;;91.63;45.92;;;;;;;;;;5014785;28;20044;-63
2021/12/29 11:47:45;;;;;;;88.55;42.25;;;;;;;;;;5014180;28;20061;-63
2021/12/29 11:50:13;;;;;;;86.50;40.20;;;;;;;;;;5014158;28;20494;-62
2021/12/29 11:52:39;;;;;;;94.97;41.92;;;;;;;;;;5014367;28;20032;-63
2021/12/29 11:55:10;;;;;;;88.40;39.30;;;;;;;;;;5014381;28;20101;-61
2021/12/29 11:57:36;;;;;;;;;;;;;;;;;;5014866;28;20022;-62
2021/12/29 12:00:22;;;;;;;86.75;39.28;;;;;;;;;;5014159;28;20402;-64
2021/12/29 12:02:50;;;;;;;92.55;42.60;;;;;;;;;;5014821;28;20065;-65
2021/12/29 12:05:35;;;;;;;100.55;44.78;;;;;;;;;;5013937;28;20105;-64
2021/12/29 12:08:12;;;;;;;96.78;44.10;;;;;;;;;;5014032;28;20073;-64
2021/12/29 12:10:39;;;;;;;112.10;50.47;;;;;;;;;;5014082;28;20026;-63
2021/12/29 12:13:20;;;;;;;149.70;65.45;;;;;;;;;;5013755;28;20373;-63
2021/12/29 12:15:47;;;;;;;116.47;55.42;;;;;;;;;;5013110;28;20038;-62
2021/12/29 12:18:13;;;;;;;116.00;51.88;;;;;;;;;;5014339;28;20018;-65
2021/12/29 12:20:44;;;;;;;106.63;46.45;;;;;;;;;;5013872;28;20029;-62
2021/12/29 12:23:21;;;;;;;110.70;51.50;;;;;;;;;;5013986;28;20069;-63
2021/12/29 12:25:47;;;;;;;108.25;49.58;;;;;;;;;;5014176;28;20423;-63
2021/12/29 12:28:17;;;;;;;100.32;46.28;;;;;;;;;;5013237;28;20373;-63
2021/12/29 12:30:45;;;;;;;105.63;48.20;;;;;;;;;;5013815;28;20084;-63
2021/12/29 12:33:26;;;;;;;96.72;45.03;;;;;;;;;;5013587;28;20025;-63
2021/12/29 12:35:53;;;;;;;89.63;42.10;;;;;;;;;;5013484;28;20112;-64
2021/12/29 12:38:22;;;;;;;82.10;39.15;;;;;;;;;;5013509;28;20524;-64
2021/12/29 12:41:03;;;;;;;85.60;38.55;;;;;;;;;;5013557;28;20026;-63
2021/12/29 12:43:29;;;;;;;83.70;38.80;;;;;;;;;;5013434;28;20030;-63
2021/12/29 12:45:55;;;;;;;80.03;38.63;;;;;;;;;;5013105;28;20072;-64
2021/12/29 12:48:26;;;;;;;81.20;36.85;;;;;;;;;;5013758;28;20046;-63
2021/12/29 12:50:53;;;;;;;80.68;38.22;;;;;;;;;;5012585;28;20029;-64
2021/12/29 12:53:29;;;;;;;81.43;39.53;;;;;;;;;;5013337;28;20472;-64
2021/12/29 12:55:56;;;;;;;80.07;38.30;;;;;;;;;;5013769;28;20038;-71
2021/12/29 12:58:23;;;;;;;88.55;41.63;;;;;;;;;;5013888;28;20444;-64
2021/12/29 13:00:49;;;;;;;75.60;38.75;;;;;;;;;;5012991;28;20018;-63
2021/12/29 13:03:16;;;;;;;75.55;38.67;;;;;;;;;;5012942;28;20494;-63
2021/12/29 13:05:44;;;;;;;74.18;38.67;;;;;;;;;;5028320;28;20044;-63
2021/12/29 13:08:15;;;;;;;75.60;38.47;;;;;;;;;;5032608;28;20034;-63
2021/12/29 13:10:42;;;;;;;79.50;40.72;;;;;;;;;;5032569;28;20025;-64
2021/12/29 13:13:14;;;;;;;74.63;38.60;;;;;;;;;;5032292;28;20026;-64
2021/12/29 13:15:41;;;;;;;77.38;38.92;;;;;;;;;;5032967;28;20033;-63
2021/12/29 13:18:08;;;;;;;79.80;41.67;;;;;;;;;;5032671;28;20468;-63
2021/12/29 13:20:35;;;;;;;81.15;39.70;;;;;;;;;;5032837;28;20476;-65
2021/12/29 13:23:01;;;;;;;68.50;31.70;;;;;;;;;;5032769;28;20039;-65
2021/12/29 13:25:31;;;;;;;80.97;39.13;;;;;;;;;;5033518;28;20034;-62
2021/12/29 13:28:02;;;;;;;66.38;31.95;;;;;;;;;;5036680;28;20107;-63
2021/12/29 13:30:29;;;;;;;;;;;;;;;;;;5037366;28;20076;-63
2021/12/29 13:32:56;;;;;;;77.90;38.25;;;;;;;;;;5036178;28;19905;-64
2021/12/29 13:35:24;;;;;;;80.50;40.33;;;;;;;;;;5036701;28;20025;-64
2021/12/29 13:37:51;;;;;;;84.32;43.67;;;;;;;;;;5035543;28;20057;-64
2021/12/29 13:40:19;;;;;;;89.43;44.25;;;;;;;;;;5036512;28;20017;-62
2021/12/29 13:42:46;;;;;;;89.60;44.28;;;;;;;;;;5036643;28;20032;-64
2021/12/29 13:45:26;;;;;;;81.05;40.03;;;;;;;;;;5036170;28;20174;-62
2021/12/29 13:47:52;;;;;;;85.05;41.55;;;;;;;;;;5036173;28;20032;-61
2021/12/29 13:50:18;;;;;;;87.28;42.03;;;;;;;;;;5036695;28;20017;-63
2021/12/29 13:52:55;;;;;;;82.40;40.95;;;;;;;;;;5036423;28;20079;-64
2021/12/29 13:55:25;;;;;;;87.30;40.72;;;;;;;;;;5036329;28;20090;-62
2021/12/29 13:57:55;;;;;;;82.95;40.17;;;;;;;;;;5035957;28;20025;-63
2021/12/29 14:00:21;;;;;;;81.88;41.33;;;;;;;;;;5036118;28;20384;-63
2021/12/29 14:02:47;;;;;;;72.32;37.00;;;;;;;;;;5035937;28;20108;-63
2021/12/29 14:05:15;;;;;;;66.40;34.63;;;;;;;;;;5035842;28;20022;-63
2021/12/29 14:07:41;;;;;;;63.60;32.70;;;;;;;;;;5035881;28;20030;-64
2021/12/29 14:10:07;;;;;;;62.08;29.00;;;;;;;;;;5036144;28;20021;-62
2021/12/29 14:12:36;;;;;;;54.58;28.05;;;;;;;;;;5035768;28;20115;-63
2021/12/29 14:15:08;;;;;;;56.92;27.38;;;;;;;;;;5036035;28;20028;-62
2021/12/29 14:17:38;;;;;;;47.08;24.20;;;;;;;;;;5036220;28;20037;-62
2021/12/29 14:20:08;;;;;;;47.13;25.08;;;;;;;;;;5035612;28;20112;-60
2021/12/29 14:22:34;;;;;;;43.55;23.92;;;;;;;;;;5035872;28;20029;-63
2021/12/29 14:25:14;;;;;;;43.15;23.70;;;;;;;;;;5035823;28;20026;-62
2021/12/29 14:27:50;;;;;;;50.00;27.25;;;;;;;;;;5035118;28;20036;-62
2021/12/29 14:30:26;;;;;;;49.35;27.45;;;;;;;;;;5035241;28;20056;-63